createdAt,value
2022-11-29T00:00:49.083Z,5
2022-11-29T00:01:56.314Z,5
2022-11-29T00:04:10.337Z,5
2022-11-29T00:05:16.982Z,5
2022-11-29T00:06:24.215Z,5
2022-11-29T00:07:31.166Z,5
2022-11-29T00:08:38.321Z,5
2022-11-29T00:09:45.371Z,5
2022-11-29T00:10:51.951Z,5
2022-11-29T00:11:59.076Z,5
2022-11-29T00:13:06.222Z,5
2022-11-29T00:14:13.383Z,5
2022-11-29T00:15:20.421Z,5
2022-11-29T00:16:27.121Z,5
2022-11-29T00:17:34.182Z,5
2022-11-29T00:18:41.216Z,5
2022-11-29T00:19:48.322Z,5
2022-11-29T00:20:55.427Z,5
2022-11-29T00:22:01.976Z,5
2022-11-29T00:23:09.092Z,5
2022-11-29T00:24:16.284Z,5
2022-11-29T00:25:23.349Z,5
2022-11-29T00:26:30.400Z,5
2022-11-29T00:27:36.972Z,5
2022-11-29T00:28:44.110Z,5
2022-11-29T00:29:51.201Z,5
2022-11-29T00:30:58.429Z,5.1
2022-11-29T00:32:05.397Z,5.1
2022-11-29T00:33:11.964Z,5.1
2022-11-29T00:34:19.431Z,5.1
2022-11-29T00:35:26.241Z,5.1
2022-11-29T00:36:33.300Z,5.1
2022-11-29T00:37:40.433Z,5.1
2022-11-29T00:38:47.027Z,5.1
2022-11-29T00:39:54.090Z,5.1
2022-11-29T00:41:01.241Z,5.1
2022-11-29T00:42:08.284Z,5.1
2022-11-29T00:43:15.474Z,5.1
2022-11-29T00:45:29.103Z,5.2
2022-11-29T00:46:36.243Z,5.2
2022-11-29T00:47:43.321Z,5.2
2022-11-29T00:48:50.414Z,5.1
2022-11-29T00:49:57.102Z,5.1
2022-11-29T00:51:04.191Z,5.2
2022-11-29T00:52:11.242Z,5.1
2022-11-29T00:53:18.355Z,5.2
2022-11-29T00:54:25.433Z,5.2
2022-11-29T00:55:32.022Z,5.2
2022-11-29T00:56:39.154Z,5.2
2022-11-29T00:57:46.289Z,5.2
2022-11-29T00:58:53.336Z,5.2
2022-11-29T01:00:00.424Z,5.2
2022-11-29T01:01:07.107Z,5.2
2022-11-29T01:02:14.163Z,5.2
2022-11-29T01:03:21.244Z,5.2
2022-11-29T01:04:28.320Z,5.2
2022-11-29T01:05:35.522Z,5.2
2022-11-29T01:07:49.726Z,5.2
2022-11-29T01:08:56.241Z,5.2
2022-11-29T01:10:03.381Z,5.2
2022-11-29T01:11:09.977Z,5.2
2022-11-29T01:12:17.044Z,5.2
2022-11-29T01:13:24.161Z,5.2
2022-11-29T01:14:31.263Z,5.2
2022-11-29T01:15:38.455Z,5.3
2022-11-29T01:16:45.053Z,5.3
2022-11-29T01:17:52.043Z,5.3
2022-11-29T01:18:59.145Z,5.2
2022-11-29T01:20:06.302Z,5.2
2022-11-29T01:21:13.376Z,5.2
2022-11-29T01:22:19.956Z,5.2
2022-11-29T01:23:27.072Z,5.3
2022-11-29T01:24:34.182Z,5.3
2022-11-29T01:27:55.001Z,5.3
2022-11-29T01:29:02.057Z,5.3
2022-11-29T01:30:09.199Z,5.3
2022-11-29T01:31:16.352Z,5.3
2022-11-29T01:32:23.379Z,5.4
2022-11-29T01:33:29.977Z,5.4
2022-11-29T01:34:37.064Z,5.4
2022-11-29T01:35:44.171Z,5.4
2022-11-29T01:36:51.271Z,5.4
2022-11-29T01:37:58.377Z,5.4
2022-11-29T01:39:05.039Z,5.4
2022-11-29T01:40:12.046Z,5.4
2022-11-29T01:41:19.218Z,5.4
2022-11-29T01:42:26.304Z,5.4
2022-11-29T01:43:33.402Z,5.4
2022-11-29T01:44:40.003Z,5.5
2022-11-29T01:45:47.217Z,5.5
2022-11-29T01:46:54.230Z,5.5
2022-11-29T01:48:01.302Z,5.5
2022-11-29T01:49:08.439Z,5.5
2022-11-29T01:50:15.031Z,5.5
2022-11-29T01:51:22.145Z,5.5
2022-11-29T01:52:29.352Z,5.6
2022-11-29T01:53:36.353Z,5.6
2022-11-29T01:54:43.833Z,5.6
2022-11-29T01:55:50.023Z,5.6
2022-11-29T01:56:57.152Z,5.6
2022-11-29T01:58:04.210Z,5.6
2022-11-29T01:59:11.293Z,5.6
2022-11-29T02:00:18.462Z,5.6
2022-11-29T02:01:25.138Z,5.6
2022-11-29T02:02:32.227Z,5.6
2022-11-29T02:03:39.414Z,5.6
2022-11-29T02:04:46.745Z,5.6
2022-11-29T02:05:53.393Z,5.6
2022-11-29T02:08:07.175Z,5.5
2022-11-29T02:09:14.223Z,5.5
2022-11-29T02:11:28.482Z,5.5
2022-11-29T02:12:35.008Z,5.5
2022-11-29T02:13:42.098Z,5.5
2022-11-29T02:14:49.301Z,5.5
2022-11-29T02:15:56.426Z,5.5
2022-11-29T02:17:03.492Z,5.5
2022-11-29T02:18:09.992Z,5.5
2022-11-29T02:19:17.141Z,5.4
2022-11-29T02:20:24.246Z,5.4
2022-11-29T02:21:31.332Z,5.5
2022-11-29T02:22:38.482Z,5.5
2022-11-29T02:23:45.084Z,5.4
2022-11-29T02:24:52.174Z,5.4
2022-11-29T02:25:59.249Z,5.4
2022-11-29T02:27:06.375Z,5.4
2022-11-29T02:28:13.508Z,5.4
2022-11-29T02:29:20.156Z,5.5
2022-11-29T02:30:27.199Z,5.5
2022-11-29T02:31:34.275Z,5.5
2022-11-29T02:32:41.373Z,5.5
2022-11-29T02:33:48.513Z,5.5
2022-11-29T02:34:55.050Z,5.5
2022-11-29T02:36:02.127Z,5.5
2022-11-29T02:37:11.656Z,5.5
2022-11-29T02:38:16.373Z,5.5
2022-11-29T02:39:23.483Z,5.5
2022-11-29T02:40:30.081Z,5.5
2022-11-29T02:41:37.172Z,5.5
2022-11-29T02:42:44.281Z,5.5
2022-11-29T02:43:51.401Z,5.5
2022-11-29T02:44:58.533Z,5.5
2022-11-29T02:46:05.140Z,5.5
2022-11-29T02:47:12.281Z,5.5
2022-11-29T02:49:26.402Z,5.5
2022-11-29T02:50:32.938Z,5.5
2022-11-29T02:51:40.133Z,5.5
2022-11-29T02:52:47.202Z,5.5
2022-11-29T02:53:54.321Z,5.4
2022-11-29T02:56:07.992Z,5.5
2022-11-29T02:57:15.076Z,5.5
2022-11-29T02:58:22.212Z,5.5
2022-11-29T02:59:29.294Z,5.4
2022-11-29T03:00:36.422Z,5.4
2022-11-29T03:01:43.163Z,5.4
2022-11-29T03:02:50.233Z,5.4
2022-11-29T03:03:57.223Z,5.4
2022-11-29T03:05:04.299Z,5.4
2022-11-29T03:06:11.391Z,5.4
2022-11-29T03:07:18.067Z,5.4
2022-11-29T03:08:25.160Z,5.4
2022-11-29T03:09:32.171Z,5.4
2022-11-29T03:10:39.328Z,5.3
2022-11-29T03:11:46.449Z,5.3
2022-11-29T03:12:55.902Z,5.3
2022-11-29T03:15:07.239Z,5.3
2022-11-29T03:16:14.398Z,5.2
2022-11-29T03:17:21.410Z,5.2
2022-11-29T03:18:28.022Z,5.2
2022-11-29T03:19:35.162Z,5.1
2022-11-29T03:20:42.188Z,5.1
2022-11-29T03:21:49.353Z,5
2022-11-29T03:22:56.392Z,5
2022-11-29T03:24:03.030Z,5
2022-11-29T03:25:10.147Z,5
2022-11-29T03:26:17.266Z,5
2022-11-29T03:27:24.353Z,4.9
2022-11-29T03:28:31.511Z,4.9
2022-11-29T03:30:45.181Z,4.9
2022-11-29T03:31:52.284Z,4.8
2022-11-29T03:32:59.352Z,4.8
2022-11-29T03:34:06.480Z,4.8
2022-11-29T03:35:13.011Z,4.7
2022-11-29T03:36:20.214Z,4.7
2022-11-29T03:37:27.281Z,4.7
2022-11-29T03:38:34.361Z,4.7
2022-11-29T03:39:41.432Z,4.7
2022-11-29T03:40:48.040Z,4.6
2022-11-29T03:41:55.220Z,4.7
2022-11-29T03:43:02.275Z,4.7
2022-11-29T03:44:09.413Z,4.6
2022-11-29T03:45:16.482Z,4.6
2022-11-29T03:46:23.088Z,4.5
2022-11-29T03:47:30.172Z,4.5
2022-11-29T03:48:37.357Z,4.5
2022-11-29T03:49:44.411Z,4.5
2022-11-29T03:50:51.436Z,4.5
2022-11-29T03:51:58.054Z,4.5
2022-11-29T03:53:05.229Z,4.5
2022-11-29T03:54:12.252Z,4.5
2022-11-29T03:55:19.368Z,4.5
2022-11-29T03:56:26.545Z,4.5
2022-11-29T03:57:33.089Z,4.5
2022-11-29T03:58:40.160Z,4.5
2022-11-29T03:59:47.320Z,4.4
2022-11-29T04:00:54.367Z,4.4
2022-11-29T04:02:01.011Z,4.4
2022-11-29T04:03:08.123Z,4.3
2022-11-29T04:04:15.200Z,4.3
2022-11-29T04:05:22.329Z,4.3
2022-11-29T04:06:29.410Z,4.2
2022-11-29T04:07:36.078Z,4.2
2022-11-29T04:08:43.061Z,4.1
2022-11-29T04:09:50.177Z,4.1
2022-11-29T04:12:04.485Z,4.1
2022-11-29T04:13:11.012Z,4
2022-11-29T04:14:18.131Z,4
2022-11-29T04:15:25.193Z,4
2022-11-29T04:16:32.298Z,3.9
2022-11-29T04:18:45.994Z,3.9
2022-11-29T04:19:53.088Z,3.9
2022-11-29T04:21:00.280Z,3.9
2022-11-29T04:22:07.384Z,3.9
2022-11-29T04:24:21.008Z,3.7
2022-11-29T04:25:28.141Z,3.7
2022-11-29T04:26:35.445Z,3.7
2022-11-29T04:27:42.290Z,3.7
2022-11-29T04:28:49.441Z,3.7
2022-11-29T04:29:56.041Z,3.7
2022-11-29T04:31:03.208Z,3.7
2022-11-29T04:32:10.253Z,3.7
2022-11-29T04:33:17.314Z,3.7
2022-11-29T04:34:24.431Z,3.6
2022-11-29T04:35:30.984Z,3.6
2022-11-29T04:36:38.120Z,3.7
2022-11-29T04:37:45.222Z,3.7
2022-11-29T04:38:52.312Z,3.6
2022-11-29T04:39:59.478Z,3.6
2022-11-29T04:41:06.094Z,3.6
2022-11-29T04:42:13.170Z,3.6
2022-11-29T04:43:20.261Z,3.6
2022-11-29T04:44:27.358Z,3.7
2022-11-29T04:45:34.435Z,3.6
2022-11-29T04:46:41.187Z,3.6
2022-11-29T04:47:48.179Z,3.6
2022-11-29T04:48:55.300Z,3.6
2022-11-29T04:50:02.365Z,3.6
2022-11-29T04:51:09.458Z,3.6
2022-11-29T04:53:23.141Z,3.7
2022-11-29T04:54:30.236Z,3.6
2022-11-29T04:55:37.423Z,3.6
2022-11-29T04:56:44.477Z,3.6
2022-11-29T04:57:51.021Z,3.6
2022-11-29T04:58:58.148Z,3.7
2022-11-29T05:00:05.279Z,3.6
2022-11-29T05:01:12.442Z,3.6
2022-11-29T05:02:19.542Z,3.6
2022-11-29T05:03:26.080Z,3.6
2022-11-29T05:04:33.173Z,3.6
2022-11-29T05:05:40.312Z,3.6
2022-11-29T05:06:47.432Z,3.6
2022-11-29T05:07:54.570Z,3.6
2022-11-29T05:09:01.034Z,3.6
2022-11-29T05:10:08.223Z,3.6
2022-11-29T05:11:15.266Z,3.6
2022-11-29T05:12:22.368Z,3.6
2022-11-29T05:13:29.487Z,3.6
2022-11-29T05:14:36.067Z,3.6
2022-11-29T05:15:43.226Z,3.5
2022-11-29T05:16:50.370Z,3.5
2022-11-29T05:17:57.402Z,3.5
2022-11-29T05:19:04.491Z,3.5
2022-11-29T05:20:11.038Z,3.5
2022-11-29T05:22:25.321Z,3.5
2022-11-29T05:23:32.359Z,3.5
2022-11-29T05:24:39.005Z,3.4
2022-11-29T05:25:46.078Z,3.4
2022-11-29T05:26:53.196Z,3.4
2022-11-29T05:28:01.110Z,3.5
2022-11-29T05:29:07.403Z,3.5
2022-11-29T05:30:14.039Z,3.4
2022-11-29T05:31:21.165Z,3.4
2022-11-29T05:32:28.252Z,3.5
2022-11-29T05:34:42.395Z,3.4
2022-11-29T05:35:49.003Z,3.5
2022-11-29T05:36:56.104Z,3.5
2022-11-29T05:38:03.229Z,3.5
2022-11-29T05:39:10.362Z,3.5
2022-11-29T05:40:17.404Z,3.5
2022-11-29T05:41:24.008Z,3.6
2022-11-29T05:42:31.749Z,3.6
2022-11-29T05:43:38.242Z,3.6
2022-11-29T05:44:45.626Z,3.6
2022-11-29T05:45:52.451Z,3.7
2022-11-29T05:46:59.032Z,3.7
2022-11-29T05:48:06.127Z,3.7
2022-11-29T05:49:13.212Z,3.8
2022-11-29T05:50:20.301Z,3.8
2022-11-29T05:52:34.085Z,3.9
2022-11-29T05:53:41.088Z,3.9
2022-11-29T05:54:48.239Z,3.9
2022-11-29T05:55:55.353Z,3.9
2022-11-29T05:57:02.444Z,3.9
2022-11-29T05:58:09.062Z,4
2022-11-29T05:59:16.201Z,4
2022-11-29T06:00:23.253Z,4
2022-11-29T06:01:30.480Z,4.1
2022-11-29T06:02:37.515Z,4.1
2022-11-29T06:03:44.061Z,4.1
2022-11-29T06:04:51.127Z,4.1
2022-11-29T06:05:58.233Z,4.2
2022-11-29T06:07:05.373Z,4.2
2022-11-29T06:08:12.447Z,4.3
2022-11-29T06:09:19.069Z,4.3
2022-11-29T06:10:26.151Z,4.3
2022-11-29T06:11:33.232Z,4.4
2022-11-29T06:12:40.371Z,4.4
2022-11-29T06:13:47.468Z,4.4
2022-11-29T06:16:01.343Z,4.5
2022-11-29T06:17:08.261Z,4.5
2022-11-29T06:18:15.352Z,4.5
2022-11-29T06:19:22.473Z,4.6
2022-11-29T06:20:29.081Z,4.6
2022-11-29T06:21:36.158Z,4.6
2022-11-29T06:22:43.240Z,4.7
2022-11-29T06:23:50.328Z,4.7
2022-11-29T06:26:04.467Z,4.8
2022-11-29T06:27:11.191Z,4.8
2022-11-29T06:28:18.319Z,4.8
2022-11-29T06:29:25.411Z,4.9
2022-11-29T06:30:32.500Z,4.9
2022-11-29T06:31:39.139Z,4.9
2022-11-29T06:32:47.272Z,4.9
2022-11-29T06:33:53.248Z,4.9
2022-11-29T06:35:00.421Z,4.9
2022-11-29T06:36:07.513Z,4.9
2022-11-29T06:37:14.122Z,5
2022-11-29T06:38:21.193Z,5
2022-11-29T06:39:28.371Z,5
2022-11-29T06:40:35.374Z,5
2022-11-29T06:41:42.543Z,5
2022-11-29T06:42:49.042Z,5
2022-11-29T06:43:56.195Z,5.1
2022-11-29T06:45:03.265Z,5.1
2022-11-29T06:46:10.436Z,5.1
2022-11-29T06:47:17.523Z,5.1
2022-11-29T06:48:24.089Z,5.1
2022-11-29T06:49:31.167Z,5
2022-11-29T06:50:38.298Z,5.1
2022-11-29T06:51:45.471Z,5.1
2022-11-29T06:52:52.499Z,5.1
2022-11-29T06:53:59.138Z,5.1
2022-11-29T06:55:06.203Z,5.1
2022-11-29T06:57:20.428Z,5.1
2022-11-29T06:58:31.458Z,5.1
2022-11-29T06:59:34.111Z,5.2
2022-11-29T07:00:41.350Z,5.2
2022-11-29T07:01:48.345Z,5.2
2022-11-29T07:02:56.011Z,5.2
2022-11-29T07:04:02.062Z,5.2
2022-11-29T07:05:09.194Z,5.2
2022-11-29T07:06:16.224Z,5.2
2022-11-29T07:07:23.362Z,5.3
2022-11-29T07:08:30.420Z,5.3
2022-11-29T07:09:37.017Z,5.3
2022-11-29T07:10:44.142Z,5.3
2022-11-29T07:11:51.210Z,5.3
2022-11-29T07:12:58.422Z,5.3
2022-11-29T07:14:05.977Z,5.3
2022-11-29T07:15:12.032Z,5.3
2022-11-29T07:16:19.435Z,5.3
2022-11-29T07:17:26.283Z,5.3
2022-11-29T07:18:33.325Z,5.4
2022-11-29T07:20:47.030Z,5.4
2022-11-29T07:21:54.171Z,5.5
2022-11-29T07:23:01.288Z,5.5
2022-11-29T07:24:08.394Z,5.6
2022-11-29T07:25:15.460Z,5.6
2022-11-29T07:26:22.000Z,5.6
2022-11-29T07:27:29.245Z,5.6
2022-11-29T07:29:43.375Z,5.6
2022-11-29T07:30:50.493Z,5.6
2022-11-29T07:31:57.094Z,5.6
2022-11-29T07:33:04.156Z,5.6
2022-11-29T07:34:11.218Z,5.6
2022-11-29T07:35:18.357Z,5.6
2022-11-29T07:36:25.512Z,5.6
2022-11-29T07:38:39.312Z,5.8
2022-11-29T07:39:46.274Z,5.8
2022-11-29T07:40:53.353Z,5.8
2022-11-29T07:42:00.482Z,5.8
2022-11-29T07:43:07.062Z,5.7
2022-11-29T07:44:14.165Z,5.7
2022-11-29T07:45:21.243Z,5.7
2022-11-29T07:46:28.423Z,5.7
2022-11-29T07:47:36.147Z,5.7
2022-11-29T07:48:42.071Z,5.7
2022-11-29T07:49:49.183Z,5.7
2022-11-29T07:50:56.352Z,5.7
2022-11-29T07:52:03.451Z,5.7
2022-11-29T07:53:10.491Z,5.7
2022-11-29T07:54:17.100Z,5.7
2022-11-29T07:55:25.261Z,5.7
2022-11-29T07:56:31.332Z,5.7
2022-11-29T07:57:38.432Z,5.7
2022-11-29T07:58:45.605Z,5.7
2022-11-29T07:59:52.062Z,5.7
2022-11-29T08:00:59.250Z,5.7
2022-11-29T08:02:11.468Z,5.7
2022-11-29T08:03:13.400Z,5.7
2022-11-29T08:04:20.589Z,5.7
2022-11-29T08:05:27.088Z,5.7
2022-11-29T08:06:34.223Z,5.7
2022-11-29T08:07:41.444Z,5.7
2022-11-29T08:08:48.475Z,5.7
2022-11-29T08:09:55.502Z,5.7
2022-11-29T08:11:02.066Z,5.7
2022-11-29T08:12:09.277Z,5.8
2022-11-29T08:13:16.331Z,5.8
2022-11-29T08:14:23.392Z,5.7
2022-11-29T08:15:30.588Z,5.8
2022-11-29T08:16:37.191Z,5.7
2022-11-29T08:17:44.327Z,5.7
2022-11-29T08:20:03.717Z,5.8
2022-11-29T08:21:05.575Z,5.8
2022-11-29T08:22:12.123Z,5.8
2022-11-29T08:23:19.244Z,5.8
2022-11-29T08:24:26.342Z,5.8
2022-11-29T08:25:33.455Z,5.8
2022-11-29T08:26:40.576Z,5.8
2022-11-29T08:27:47.191Z,5.8
2022-11-29T08:28:54.263Z,5.8
2022-11-29T08:30:01.385Z,5.8
2022-11-29T08:31:08.537Z,5.8
2022-11-29T08:33:22.135Z,5.8
2022-11-29T08:34:29.196Z,5.9
2022-11-29T08:35:36.384Z,5.8
2022-11-29T08:36:43.541Z,5.9
2022-11-29T08:37:50.583Z,5.9
2022-11-29T08:39:03.475Z,5.9
2022-11-29T08:40:04.292Z,5.9
2022-11-29T08:41:11.400Z,5.9
2022-11-29T08:42:18.523Z,5.9
2022-11-29T08:43:25.053Z,5.9
2022-11-29T08:44:32.114Z,5.9
2022-11-29T08:45:39.409Z,5.9
2022-11-29T08:46:46.414Z,5.9
2022-11-29T08:49:00.055Z,5.9
2022-11-29T08:50:07.137Z,5.9
2022-11-29T08:51:14.297Z,5.9
2022-11-29T08:52:21.491Z,5.9
2022-11-29T08:53:28.473Z,5.8
2022-11-29T08:54:35.106Z,5.9
2022-11-29T08:55:42.122Z,5.9
2022-11-29T08:57:23.638Z,5.9
2022-11-29T08:57:56.413Z,5.8
2022-11-29T08:59:03.449Z,5.8
2022-11-29T09:01:17.343Z,5.8
2022-11-29T09:02:24.406Z,5.8
2022-11-29T09:03:31.384Z,5.8
2022-11-29T09:04:38.514Z,6
2022-11-29T09:05:45.074Z,5.9
2022-11-29T09:06:52.139Z,5.9
2022-11-29T09:07:59.410Z,5.9
2022-11-29T09:09:06.423Z,5.9
2022-11-29T09:10:13.471Z,5.9
2022-11-29T09:11:20.101Z,5.8
2022-11-29T09:12:27.224Z,5.8
2022-11-29T09:13:34.323Z,5.7
2022-11-29T09:14:41.383Z,5.7
2022-11-29T09:15:48.527Z,5.7
2022-11-29T09:16:55.173Z,5.7
2022-11-29T09:18:02.202Z,5.7
2022-11-29T09:19:09.412Z,5.7
2022-11-29T09:20:16.431Z,5.7
2022-11-29T09:21:23.469Z,5.7
2022-11-29T09:22:30.117Z,5.7
2022-11-29T09:23:37.213Z,5.6
2022-11-29T09:24:44.585Z,5.6
2022-11-29T09:25:51.374Z,5.6
2022-11-29T09:26:58.522Z,5.6
2022-11-29T09:28:05.132Z,5.6
2022-11-29T09:29:12.283Z,5.6
2022-11-29T09:30:23.513Z,5.5
2022-11-29T09:31:26.513Z,5.5
2022-11-29T09:32:33.563Z,5.5
2022-11-29T09:33:40.122Z,5.5
2022-11-29T09:34:47.508Z,5.5
2022-11-29T09:37:01.477Z,5.4
2022-11-29T09:38:08.542Z,5.4
2022-11-29T09:39:15.115Z,5.4
2022-11-29T09:40:22.242Z,5.4
2022-11-29T09:42:36.491Z,5.4
2022-11-29T09:43:43.537Z,5.4
2022-11-29T09:44:50.123Z,5.3
2022-11-29T09:45:57.334Z,5.3
2022-11-29T09:47:04.358Z,5.2
2022-11-29T09:48:11.418Z,5.3
2022-11-29T09:49:18.613Z,5.3
2022-11-29T09:50:25.125Z,5.2
2022-11-29T09:51:32.233Z,5.2
2022-11-29T09:52:39.354Z,5.2
2022-11-29T09:53:46.464Z,5.2
2022-11-29T09:54:53.537Z,5.3
2022-11-29T09:56:00.137Z,5.3
2022-11-29T09:57:10.629Z,5.2
2022-11-29T09:58:14.363Z,5.2
2022-11-29T09:59:20.899Z,5.3
2022-11-29T10:00:28.052Z,5.2
2022-11-29T10:01:35.230Z,5.2
2022-11-29T10:02:42.431Z,5.3
2022-11-29T10:03:49.401Z,5.3
2022-11-29T10:04:56.427Z,5.3
2022-11-29T10:06:03.028Z,5.3
2022-11-29T10:07:10.161Z,5.3
2022-11-29T10:08:17.283Z,5.3
2022-11-29T10:09:24.351Z,5.4
2022-11-29T10:10:31.483Z,5.4
2022-11-29T10:11:38.111Z,5.4
2022-11-29T10:12:45.243Z,5.4
2022-11-29T10:13:52.263Z,5.4
2022-11-29T10:14:59.411Z,5.4
2022-11-29T10:17:13.106Z,5.4
2022-11-29T10:18:20.205Z,5.4
2022-11-29T10:19:27.286Z,5.4
2022-11-29T10:20:39.286Z,5.4
2022-11-29T10:21:41.480Z,5.4
2022-11-29T10:23:55.242Z,5.5
2022-11-29T10:25:02.300Z,5.5
2022-11-29T10:26:09.413Z,5.5
2022-11-29T10:27:16.621Z,5.5
2022-11-29T10:28:23.071Z,5.5
2022-11-29T10:29:30.187Z,5.5
2022-11-29T10:30:37.277Z,5.5
2022-11-29T10:31:44.442Z,5.5
2022-11-29T10:32:51.480Z,5.5
2022-11-29T10:33:58.128Z,5.5
2022-11-29T10:35:05.186Z,5.5
2022-11-29T10:36:12.291Z,5.5
2022-11-29T10:37:19.436Z,5.5
2022-11-29T10:38:31.491Z,5.6
2022-11-29T10:40:40.187Z,5.6
2022-11-29T10:41:47.293Z,5.6
2022-11-29T10:42:56.081Z,5.6
2022-11-29T10:44:01.528Z,5.6
2022-11-29T10:45:08.122Z,5.6
2022-11-29T10:46:15.279Z,5.6
2022-11-29T10:47:22.342Z,5.7
2022-11-29T10:48:29.483Z,5.7
2022-11-29T10:49:36.562Z,5.7
2022-11-29T10:50:43.112Z,5.7
2022-11-29T10:51:50.201Z,5.8
2022-11-29T10:53:00.131Z,5.8
2022-11-29T10:54:04.452Z,5.8
2022-11-29T10:55:11.490Z,5.8
2022-11-29T10:56:18.123Z,5.8
2022-11-29T10:57:25.258Z,5.9
2022-11-29T10:58:32.300Z,5.9
2022-11-29T10:59:39.451Z,5.9
2022-11-29T11:00:46.546Z,6
2022-11-29T11:01:53.219Z,5.9
2022-11-29T11:03:00.253Z,6
2022-11-29T11:04:07.394Z,6
2022-11-29T11:05:14.473Z,6.1
2022-11-29T11:06:21.668Z,6.1
2022-11-29T11:07:28.205Z,6.1
2022-11-29T11:08:35.234Z,6.1
2022-11-29T11:09:42.346Z,6.2
2022-11-29T11:10:53.688Z,6.2
2022-11-29T11:11:56.642Z,6.2
2022-11-29T11:13:03.124Z,6.2
2022-11-29T11:14:10.294Z,6.3
2022-11-29T11:15:17.386Z,6.3
2022-11-29T11:16:24.594Z,6.3
2022-11-29T11:17:31.620Z,6.3
2022-11-29T11:18:38.135Z,6.3
2022-11-29T11:19:45.273Z,6.3
2022-11-29T11:20:52.354Z,6.3
2022-11-29T11:22:00.040Z,6.3
2022-11-29T11:23:06.092Z,6.4
2022-11-29T11:24:13.148Z,6.4
2022-11-29T11:25:20.248Z,6.4
2022-11-29T11:26:27.382Z,6.4
2022-11-29T11:27:34.482Z,6.5
2022-11-29T11:28:41.085Z,6.5
2022-11-29T11:29:48.182Z,6.5
2022-11-29T11:30:55.404Z,6.5
2022-11-29T11:32:02.415Z,6.6
2022-11-29T11:33:09.493Z,6.6
2022-11-29T11:34:16.147Z,6.6
2022-11-29T11:35:23.173Z,6.7
2022-11-29T11:36:30.262Z,6.7
2022-11-29T11:37:37.421Z,6.7
2022-11-29T11:38:44.555Z,6.7
2022-11-29T11:39:51.232Z,6.7
2022-11-29T11:40:58.289Z,6.7
2022-11-29T11:42:05.291Z,6.7
2022-11-29T11:45:26.133Z,6.7
2022-11-29T11:46:33.191Z,6.7
2022-11-29T11:47:40.355Z,6.7
2022-11-29T11:48:47.403Z,6.7
2022-11-29T11:49:54.536Z,6.7
2022-11-29T11:51:01.105Z,6.7
2022-11-29T11:52:08.190Z,6.6
2022-11-29T11:53:15.323Z,6.7
2022-11-29T11:54:22.388Z,6.7
2022-11-29T11:55:29.592Z,6.6
2022-11-29T11:56:36.141Z,6.7
2022-11-29T11:57:43.163Z,6.7
2022-11-29T11:58:50.324Z,6.6
2022-11-29T11:59:59.642Z,6.6
2022-11-29T12:01:05.274Z,6.6
2022-11-29T12:02:11.129Z,6.6
2022-11-29T12:03:18.319Z,6.6
2022-11-29T12:04:25.340Z,6.6
2022-11-29T12:05:32.405Z,6.6
2022-11-29T12:06:39.601Z,6.6
2022-11-29T12:08:07.403Z,6.6
2022-11-29T12:08:53.213Z,6.6
2022-11-29T12:10:00.365Z,6.6
2022-11-29T12:11:07.792Z,6.6
2022-11-29T12:12:14.683Z,6.6
2022-11-29T12:13:21.155Z,6.6
2022-11-29T12:14:28.231Z,6.6
2022-11-29T12:15:35.501Z,6.6
2022-11-29T12:16:42.523Z,6.6
2022-11-29T12:17:49.554Z,6.5
2022-11-29T12:18:56.120Z,6.5
2022-11-29T12:20:03.198Z,6.6
2022-11-29T12:21:10.316Z,6.5
2022-11-29T12:22:17.428Z,6.5
2022-11-29T12:23:24.595Z,6.5
2022-11-29T12:24:31.131Z,6.5
2022-11-29T12:25:38.337Z,6.5
2022-11-29T12:26:57.495Z,6.5
2022-11-29T12:27:52.460Z,6.5
2022-11-29T12:28:59.031Z,6.5
2022-11-29T12:30:06.164Z,6.5
2022-11-29T12:31:13.323Z,6.5
2022-11-29T12:32:20.418Z,6.4
2022-11-29T12:33:27.501Z,6.4
2022-11-29T12:34:34.037Z,6.4
2022-11-29T12:35:41.120Z,6.5
2022-11-29T12:36:48.312Z,6.5
2022-11-29T12:37:55.455Z,6.5
2022-11-29T12:39:02.432Z,6.6
2022-11-29T12:40:09.056Z,6.6
2022-11-29T12:41:16.162Z,6.6
2022-11-29T12:42:23.271Z,6.6
2022-11-29T12:43:30.389Z,6.6
2022-11-29T12:44:36.944Z,6.7
2022-11-29T12:45:44.083Z,6.7
2022-11-29T12:47:58.305Z,6.6
2022-11-29T12:49:05.372Z,6.7
2022-11-29T12:50:12.536Z,6.6
2022-11-29T12:51:19.103Z,6.6
2022-11-29T12:52:26.253Z,6.6
2022-11-29T12:53:33.283Z,6.7
2022-11-29T12:54:40.433Z,6.7
2022-11-29T12:55:47.479Z,6.6
2022-11-29T12:56:54.114Z,6.6
2022-11-29T12:58:01.206Z,6.6
2022-11-29T12:59:08.305Z,6.6
2022-11-29T13:00:15.384Z,6.5
2022-11-29T13:01:22.544Z,6.5
2022-11-29T13:02:29.157Z,6.5
2022-11-29T13:03:36.187Z,6.4
2022-11-29T13:04:43.559Z,6.4
2022-11-29T13:05:50.457Z,6.5
2022-11-29T13:06:57.551Z,6.4
2022-11-29T13:08:04.173Z,6.4
2022-11-29T13:09:11.158Z,6.4
2022-11-29T13:10:18.822Z,6.4
2022-11-29T13:11:25.486Z,6.3
2022-11-29T13:13:39.153Z,6.3
2022-11-29T13:14:46.295Z,6.3
2022-11-29T13:15:53.516Z,6.3
2022-11-29T13:17:00.544Z,6.3
2022-11-29T13:18:07.513Z,6.3
2022-11-29T13:19:14.093Z,6.3
2022-11-29T13:20:21.203Z,6.3
2022-11-29T13:21:28.379Z,6.3
2022-11-29T13:22:35.545Z,6.3
2022-11-29T13:24:07.290Z,6.3
2022-11-29T13:24:49.501Z,6.3
2022-11-29T13:25:56.729Z,6.3
2022-11-29T13:27:03.398Z,6.3
2022-11-29T13:28:10.387Z,6.3
2022-11-29T13:29:17.594Z,6.3
2022-11-29T13:30:24.142Z,6.3
2022-11-29T13:31:31.270Z,6.3
2022-11-29T13:32:38.405Z,6.3
2022-11-29T13:33:45.450Z,6.3
2022-11-29T13:34:52.533Z,6.3
2022-11-29T13:35:59.115Z,6.3
2022-11-29T13:37:06.265Z,6.3
2022-11-29T13:38:13.323Z,6.3
2022-11-29T13:39:20.465Z,6.3
2022-11-29T13:40:27.546Z,6.3
2022-11-29T13:41:34.134Z,6.3
2022-11-29T13:42:41.306Z,6.3
2022-11-29T13:43:48.433Z,6.3
2022-11-29T13:44:55.438Z,6.3
2022-11-29T13:46:02.631Z,6.2
2022-11-29T13:47:09.169Z,6.2
2022-11-29T13:48:16.263Z,6.2
2022-11-29T13:49:23.324Z,6.2
2022-11-29T13:51:37.620Z,6.2
2022-11-29T13:52:44.228Z,6.2
2022-11-29T13:53:51.373Z,6.2
2022-11-29T13:54:58.387Z,6.2
2022-11-29T13:56:05.505Z,6.2
2022-11-29T13:57:12.578Z,6.2
2022-11-29T13:58:19.232Z,6.2
2022-11-29T13:59:26.311Z,6.1
2022-11-29T14:00:33.395Z,6.1
2022-11-29T14:01:40.477Z,6.2
2022-11-29T14:02:47.627Z,6.1
2022-11-29T14:03:54.195Z,6.1
2022-11-29T14:05:01.265Z,6.1
2022-11-29T14:06:08.391Z,6.1
2022-11-29T14:08:22.072Z,6.1
2022-11-29T14:09:29.192Z,6.1
2022-11-29T14:10:36.277Z,6.1
2022-11-29T14:11:43.397Z,6.1
2022-11-29T14:12:50.528Z,6.1
2022-11-29T14:13:57.073Z,6.1
2022-11-29T14:15:04.223Z,6.1
2022-11-29T14:16:11.274Z,6.1
2022-11-29T14:17:18.443Z,6.2
2022-11-29T14:18:25.543Z,6.2
2022-11-29T14:19:34.060Z,6.2
2022-11-29T14:20:39.238Z,6.1
2022-11-29T14:21:46.288Z,6.1
2022-11-29T14:22:56.163Z,6.1
2022-11-29T14:24:00.535Z,6.1
2022-11-29T14:25:21.854Z,6.1
2022-11-29T14:26:14.230Z,6.1
2022-11-29T14:27:21.272Z,6.1
2022-11-29T14:28:28.450Z,6.1
2022-11-29T14:29:35.577Z,6.1
2022-11-29T14:30:42.101Z,6.1
2022-11-29T14:31:49.205Z,6.1
2022-11-29T14:32:56.360Z,6.1
2022-11-29T14:34:03.463Z,6.1
2022-11-29T14:35:10.475Z,6.1
2022-11-29T14:36:17.100Z,6.1
2022-11-29T14:37:24.232Z,6.1
2022-11-29T14:38:31.470Z,6.1
2022-11-29T14:39:38.465Z,6.1
2022-11-29T14:41:52.132Z,6.1
2022-11-29T14:42:59.288Z,6.1
2022-11-29T14:44:06.327Z,6.1
2022-11-29T14:45:13.433Z,6.1
2022-11-29T14:46:24.731Z,6.1
2022-11-29T14:47:27.083Z,6
2022-11-29T14:49:41.300Z,6
2022-11-29T14:50:48.512Z,6
2022-11-29T14:51:55.020Z,5.9
2022-11-29T14:53:02.244Z,5.9
2022-11-29T14:55:16.436Z,5.9
2022-11-29T14:56:23.485Z,5.9
2022-11-29T14:57:30.668Z,5.9
2022-11-29T14:58:37.294Z,5.9
2022-11-29T14:59:44.273Z,5.8
2022-11-29T15:00:51.478Z,5.8
2022-11-29T15:01:58.690Z,5.8
2022-11-29T15:03:05.687Z,5.7
2022-11-29T15:04:12.356Z,5.7
2022-11-29T15:05:19.397Z,5.7
2022-11-29T15:06:26.491Z,5.7
2022-11-29T15:07:33.651Z,5.7
2022-11-29T15:08:40.771Z,5.7
2022-11-29T15:09:47.149Z,5.7
2022-11-29T15:10:54.377Z,5.6
2022-11-29T15:12:01.466Z,5.6
2022-11-29T15:13:08.636Z,5.6
2022-11-29T15:14:15.867Z,5.6
2022-11-29T15:15:22.432Z,5.6
2022-11-29T15:16:29.355Z,5.6
2022-11-29T15:17:37.061Z,5.6
2022-11-29T15:18:43.658Z,5.6
2022-11-29T15:19:50.540Z,5.6
2022-11-29T15:20:57.468Z,5.6
2022-11-29T15:22:04.525Z,5.6
2022-11-29T15:23:11.378Z,5.6
2022-11-29T15:24:19.841Z,5.6
2022-11-29T15:25:25.583Z,5.6
2022-11-29T15:26:32.493Z,5.6
2022-11-29T15:27:40.361Z,5.6
2022-11-29T15:28:46.615Z,5.6
2022-11-29T15:31:00.264Z,5.6
2022-11-29T15:32:07.155Z,5.7
2022-11-29T15:33:14.435Z,5.7
2022-11-29T15:34:21.352Z,5.7
2022-11-29T15:35:28.682Z,5.7
2022-11-29T15:36:35.832Z,5.7
2022-11-29T15:37:42.262Z,5.7
2022-11-29T15:38:49.428Z,5.7
2022-11-29T15:39:56.384Z,5.7
2022-11-29T15:41:03.667Z,5.7
2022-11-29T15:42:10.279Z,5.7
2022-11-29T15:43:17.379Z,5.7
2022-11-29T15:44:24.396Z,5.7
2022-11-29T15:45:31.446Z,5.7
2022-11-29T15:46:38.749Z,5.7
2022-11-29T15:47:45.138Z,5.6
2022-11-29T15:48:52.393Z,5.6
2022-11-29T15:49:59.473Z,5.6
2022-11-29T15:51:06.581Z,5.6
2022-11-29T15:52:20.078Z,5.6
2022-11-29T15:53:20.110Z,5.6
2022-11-29T15:54:27.372Z,5.5
2022-11-29T15:55:34.305Z,5.5
2022-11-29T15:56:41.626Z,5.5
2022-11-29T15:58:55.265Z,5.4
2022-11-29T16:00:02.312Z,5.4
2022-11-29T16:01:09.511Z,5.4
2022-11-29T16:02:16.568Z,5.4
2022-11-29T16:03:23.498Z,5.4
2022-11-29T16:04:30.297Z,5.4
2022-11-29T16:05:37.350Z,5.4
2022-11-29T16:06:44.470Z,5.4
2022-11-29T16:07:51.612Z,5.4
2022-11-29T16:08:58.646Z,5.4
2022-11-29T16:10:05.177Z,5.4
2022-11-29T16:12:19.362Z,5.3
2022-11-29T16:13:26.596Z,5.3
2022-11-29T16:14:33.733Z,5.3
2022-11-29T16:15:40.449Z,5.3
2022-11-29T16:16:47.635Z,5.3